Terminal Aerodrome Forecast
Issued by NWS Charleston, WV

Current Version | Previous Version | Graphics & Text | Print | Product List | Glossary On
Versions: 1 2 3 4 5 6 7 8 9 10 11 12 13 14 15 16 17 18 19 20 21
187
FTUS41 KRLX 081516 AAA
TAFPKB
TAF AMD
KPKB 081516Z 0815/0912 19005KT 3SM -SHRASN BR OVC018
     FM081700 20004KT 2SM -SHRA BR OVC015
     FM090100 20004KT 1 1/2SM -SHSN BR OVC007=

USA.gov is the U.S. government's official web portal to all federal, state and local government web resources and services.